Time;durP1;ratioP1;P1;durP2;ratioP2;P2;SDS_P1;SDS_P2;PMS_P1;PMS_P2;Temp;Humidity;BMP_temperature;BMP_pressure;BME280_temperature;BME280_humidity;BME280_pressure;Samples;Min_cycle;Max_cycle;Signal;HPM_P1;HPM_P2
2023/01/31 00:01:54;;;;;;;0.05;0.05;;;3.70;99.90;12.80;85402.00;;;;5061464;28;20202;-75
2023/01/31 00:04:24;;;;;;;0.10;0.10;;;3.70;99.90;12.80;85402.00;;;;5050093;28;20656;-75
2023/01/31 00:06:52;;;;;;;0.10;0.10;;;3.70;99.90;12.80;85402.00;;;;5054923;28;20198;-75
2023/01/31 00:09:20;;;;;;;0.10;0.10;;;3.70;99.90;12.80;85402.00;;;;5060461;28;20257;-76
2023/01/31 00:11:48;;;;;;;0.10;0.10;;;3.70;99.90;12.80;85402.00;;;;5046623;28;20206;-77
2023/01/31 00:14:20;;;;;;;0.10;0.10;;;3.70;99.90;12.80;85402.00;;;;5052883;28;20272;-76
2023/01/31 00:16:48;;;;;;;0.10;0.10;;;3.70;99.90;12.80;85402.00;;;;5050455;28;20195;-75
2023/01/31 00:19:16;;;;;;;0.10;0.10;;;3.70;99.90;12.80;85402.00;;;;5056335;28;20228;-74
2023/01/31 00:21:46;;;;;;;0.10;0.10;;;3.70;99.90;12.80;85402.00;;;;5053461;28;20194;-74
2023/01/31 00:24:15;;;;;;;0.10;0.10;;;3.60;99.90;12.80;85402.00;;;;5047513;28;20218;-74
2023/01/31 00:26:43;;;;;;;0.10;0.10;;;3.50;99.90;12.80;85402.00;;;;5054784;28;20343;-74
2023/01/31 00:29:11;;;;;;;0.10;0.10;;;3.50;99.90;12.80;85402.00;;;;5045453;28;20222;-74
2023/01/31 00:31:40;;;;;;;0.10;0.10;;;3.40;99.90;12.80;85402.00;;;;5056195;28;20742;-73
2023/01/31 00:34:08;;;;;;;0.10;0.10;;;3.30;99.90;12.80;85402.00;;;;5045428;28;20218;-76
2023/01/31 00:36:36;;;;;;;0.10;0.10;;;3.20;99.90;12.80;85402.00;;;;5047971;28;20590;-74
2023/01/31 00:39:11;;;;;;;0.10;0.10;;;3.20;99.90;12.80;85402.00;;;;5038348;28;20201;-75
2023/01/31 00:41:39;;;;;;;0.17;0.17;;;3.10;99.90;12.80;85402.00;;;;5054485;28;20198;-74
2023/01/31 00:44:08;;;;;;;0.10;0.10;;;3.10;99.90;12.80;85402.00;;;;5044998;28;20206;-75
2023/01/31 00:46:38;;;;;;;0.10;0.10;;;3.10;99.90;12.80;85402.00;;;;5057871;28;20241;-75
2023/01/31 00:49:06;;;;;;;0.10;0.10;;;3.10;99.90;289.30;140013.00;;;;5051934;28;20191;-74
2023/01/31 00:51:34;;;;;;;0.10;0.10;;;3.10;99.90;289.10;139937.00;;;;5045120;28;20211;-76
2023/01/31 00:54:03;;;;;;;0.10;0.10;;;3.00;99.90;289.00;140251.00;;;;5073235;28;20309;-75
2023/01/31 00:56:32;;;;;;;0.10;0.10;;;3.10;99.90;289.20;139993.00;;;;5040844;28;20199;-74
2023/01/31 00:59:03;;;;;;;0.00;0.00;;;3.10;99.90;289.20;140079.00;;;;5061024;28;20181;-75
2023/01/31 01:01:31;;;;;;;0.10;0.10;;;3.10;99.90;289.30;140091.00;;;;5070184;28;20206;-77
2023/01/31 01:04:01;;;;;;;0.10;0.10;;;3.10;99.90;289.30;140133.00;;;;5053302;28;20221;-76
2023/01/31 01:06:33;;;;;;;0.10;0.10;;;3.10;99.90;289.30;140170.00;;;;5056395;28;20253;-76
2023/01/31 01:09:02;;;;;;;0.00;0.00;;;3.20;99.90;289.50;140175.00;;;;5049619;28;20187;-75
2023/01/31 01:11:35;;;;;;;0.10;0.10;;;3.20;99.90;289.60;140336.00;;;;5051291;28;20203;-77
2023/01/31 01:14:03;;;;;;;0.10;0.10;;;3.30;99.90;289.60;140372.00;;;;5074364;28;20324;-77
2023/01/31 01:16:36;;;;;;;0.10;0.10;;;3.30;99.90;289.60;140333.00;;;;5044373;28;20203;-76
2023/01/31 01:19:08;;;;;;;0.10;0.10;;;3.30;99.90;289.60;140259.00;;;;5062829;28;20190;-76
2023/01/31 01:21:37;;;;;;;0.10;0.10;;;3.30;99.90;289.60;140412.00;;;;5040794;28;20602;-77
2023/01/31 01:24:11;;;;;;;0.10;0.10;;;3.40;99.90;289.50;140412.00;;;;5046649;28;20268;-78
2023/01/31 01:26:40;;;;;;;0.00;0.00;;;3.40;99.90;289.50;140591.00;;;;5049339;28;20294;-77
2023/01/31 01:29:09;;;;;;;0.10;0.10;;;3.40;99.90;289.50;140608.00;;;;5045840;28;20191;-77
2023/01/31 01:31:39;;;;;;;0.10;0.10;;;3.40;99.90;289.50;140631.00;;;;5045448;28;20570;-78
2023/01/31 01:34:12;;;;;;;0.00;0.00;;;3.40;99.90;289.50;140674.00;;;;5055134;28;20209;-76
2023/01/31 01:36:40;;;;;;;0.08;0.08;;;3.40;99.90;289.60;140717.00;;;;5052824;28;20547;-79
2023/01/31 01:39:11;;;;;;;0.08;0.08;;;3.40;99.90;289.70;140583.00;;;;5053249;28;20250;-75
2023/01/31 01:41:44;;;;;;;0.10;0.10;;;3.50;99.90;289.80;140647.00;;;;5049849;28;20660;-76
2023/01/31 01:44:46;;;;;;;0.10;0.10;;;3.50;99.90;289.70;140717.00;;;;5046069;28;20605;-78
2023/01/31 01:47:23;;;;;;;0.10;0.10;;;3.50;99.90;289.80;140581.00;;;;5040315;28;20194;-76
2023/01/31 01:49:59;;;;;;;0.10;0.10;;;3.50;99.90;289.90;140639.00;;;;5044804;28;20261;-77
2023/01/31 01:52:30;;;;;;;0.10;0.10;;;3.60;99.90;289.90;140696.00;;;;5056587;28;20211;-76
2023/01/31 01:55:05;;;;;;;0.10;0.10;;;3.60;99.90;289.80;140697.00;;;;5045901;28;20210;-76
2023/01/31 01:57:44;;;;;;;0.10;0.10;;;3.60;99.90;289.80;140738.00;;;;5052968;28;20198;-76
2023/01/31 02:00:19;;;;;;;0.10;0.10;;;3.60;99.90;289.80;140855.00;;;;5059465;28;20194;-76
2023/01/31 02:02:52;;;;;;;0.10;0.10;;;3.60;99.90;289.80;140928.00;;;;5057297;28;20206;-76
2023/01/31 02:05:30;;;;;;;0.10;0.10;;;3.70;99.90;289.80;141133.00;;;;5058444;28;20218;-77
2023/01/31 02:07:59;;;;;;;0.10;0.10;;;3.70;99.90;289.80;140904.00;;;;5071572;28;20241;-76
2023/01/31 02:10:35;;;;;;;0.10;0.10;;;3.70;99.90;289.70;140644.00;;;;5056289;28;20198;-75
2023/01/31 02:13:09;;;;;;;0.13;0.13;;;3.60;99.90;289.70;140602.00;;;;5059050;28;20288;-75
2023/01/31 02:15:37;;;;;;;0.10;0.10;;;3.50;99.90;289.70;140475.00;;;;5050200;28;20206;-76
2023/01/31 02:18:06;;;;;;;0.10;0.10;;;3.50;99.90;289.80;140607.00;;;;5047145;28;20203;-76
2023/01/31 02:21:31;;;;;;;0.10;0.10;;;3.50;99.90;289.60;140497.00;;;;5061596;28;20676;-76
2023/01/31 02:24:52;;;;;;;0.20;0.20;;;3.50;99.90;289.60;140461.00;;;;5043185;28;20215;-77
2023/01/31 02:28:05;;;;;;;0.10;0.10;;;3.40;99.90;289.50;140352.00;;;;5039551;28;20211;-77
2023/01/31 02:31:21;;;;;;;0.10;0.10;;;3.40;99.90;289.50;140403.00;;;;5071650;28;20327;-75
2023/01/31 02:33:58;;;;;;;0.10;0.10;;;3.30;99.90;289.50;140375.00;;;;5055203;28;20226;-77
2023/01/31 02:36:42;;;;;;;0.10;0.10;;;3.30;99.90;289.40;140355.00;;;;5040661;28;20217;-76
2023/01/31 02:39:25;;;;;;;0.10;0.10;;;3.30;99.90;289.40;140374.00;;;;5078147;28;20601;-76
2023/01/31 02:42:05;;;;;;;0.10;0.10;;;3.30;99.90;289.40;140387.00;;;;5045380;28;20196;-77
2023/01/31 02:45:01;;;;;;;0.10;0.10;;;3.30;99.90;289.40;140357.00;;;;5062674;28;20353;-77
2023/01/31 02:48:03;;;;;;;0.10;0.10;;;3.30;99.90;289.40;140509.00;;;;5060807;28;20244;-77
2023/01/31 02:50:44;;;;;;;0.10;0.10;;;3.30;99.90;289.40;140313.00;;;;5060555;28;20636;-77
2023/01/31 02:53:21;;;;;;;0.10;0.10;;;3.30;99.90;289.30;140479.00;;;;5061132;28;20225;-77
2023/01/31 02:56:17;;;;;;;0.10;0.10;;;3.20;99.90;289.40;140585.00;;;;5052491;28;20206;-77
2023/01/31 02:58:54;;;;;;;0.10;0.10;;;3.30;99.90;289.40;140572.00;;;;5058725;28;20190;-77
2023/01/31 03:01:28;;;;;;;0.10;0.10;;;3.30;99.90;289.40;140701.00;;;;5055252;28;20197;-77
2023/01/31 03:03:59;;;;;;;0.10;0.10;;;3.30;99.90;289.40;140633.00;;;;5073642;28;20220;-77
2023/01/31 03:07:00;;;;;;;0.05;0.05;;;3.30;99.90;289.30;140846.00;;;;5053218;28;20198;-77
2023/01/31 03:09:42;;;;;;;0.10;0.10;;;3.30;99.90;288.80;141986.00;;;;5046285;28;20213;-77
2023/01/31 03:12:28;;;;;;;0.10;0.10;;;3.40;99.90;288.80;142173.00;;;;5045563;28;20226;-77
2023/01/31 03:15:14;;;;;;;0.10;0.10;;;3.40;99.90;288.90;142168.00;;;;5051606;28;20249;-76
2023/01/31 03:17:58;;;;;;;0.10;0.10;;;3.40;99.90;288.90;142156.00;;;;5058484;28;20649;-76
2023/01/31 03:20:36;;;;;;;0.10;0.10;;;3.50;99.90;288.90;142090.00;;;;5044867;28;20199;-76
2023/01/31 03:23:13;;;;;;;0.10;0.10;;;3.50;99.90;288.90;142137.00;;;;5063103;28;20680;-76
2023/01/31 03:25:43;;;;;;;0.10;0.10;;;3.50;99.90;288.90;141869.00;;;;5058121;28;20285;-75
2023/01/31 03:28:18;;;;;;;0.10;0.10;;;3.40;99.90;288.80;141846.00;;;;5060542;28;20185;-76
2023/01/31 03:30:55;;;;;;;0.10;0.10;;;3.40;99.90;288.80;141793.00;;;;5058160;28;20216;-77
2023/01/31 03:33:29;;;;;;;0.10;0.10;;;3.40;99.90;288.80;141920.00;;;;5058137;28;20623;-78
2023/01/31 03:36:05;;;;;;;0.10;0.10;;;3.40;99.90;288.80;141893.00;;;;5046979;28;20201;-78
2023/01/31 03:38:43;;;;;;;0.10;0.10;;;3.30;99.90;288.80;141824.00;;;;5054449;28;20197;-78
2023/01/31 03:41:23;;;;;;;0.10;0.10;;;3.30;99.90;288.80;141847.00;;;;5036638;28;20203;-79
2023/01/31 03:44:02;;;;;;;0.10;0.10;;;3.30;99.90;288.70;141792.00;;;;5050579;28;20309;-77
2023/01/31 03:46:37;;;;;;;0.10;0.10;;;3.30;99.90;288.70;141778.00;;;;5054803;28;20198;-76
2023/01/31 03:49:13;;;;;;;0.10;0.10;;;3.30;99.90;288.70;141857.00;;;;5049291;28;20209;-76
2023/01/31 03:51:47;;;;;;;0.10;0.10;;;3.30;99.90;288.70;141785.00;;;;5051551;28;20206;-78
2023/01/31 03:54:24;;;;;;;0.10;0.10;;;3.30;99.90;288.70;141898.00;;;;5071611;28;20233;-77
2023/01/31 03:57:00;;;;;;;0.10;0.10;;;3.30;99.90;288.50;142189.00;;;;5044583;28;20620;-76
2023/01/31 03:59:36;;;;;;;0.10;0.10;;;3.30;99.90;288.60;142021.00;;;;5056338;28;20700;-76
2023/01/31 04:02:10;;;;;;;0.10;0.10;;;3.40;99.90;288.60;142146.00;;;;5051674;28;20265;-77
2023/01/31 04:04:45;;;;;;;0.10;0.10;;;3.30;99.90;288.70;142289.00;;;;5052651;28;20218;-76
2023/01/31 04:07:13;;;;;;;0.10;0.10;;;3.40;99.90;288.70;142250.00;;;;5060757;28;20198;-77
2023/01/31 04:09:42;;;;;;;0.10;0.10;;;3.40;99.90;288.80;142377.00;;;;5053153;28;20259;-77
2023/01/31 04:12:14;;;;;;;0.10;0.10;;;3.40;99.90;288.80;142374.00;;;;5046688;28;20203;-77
2023/01/31 04:14:43;;;;;;;0.10;0.10;;;3.50;99.90;288.70;142243.00;;;;5054117;28;20253;-77
2023/01/31 04:17:11;;;;;;;0.10;0.10;;;3.40;99.90;288.70;142475.00;;;;5047867;28;20194;-77
2023/01/31 04:19:40;;;;;;;0.10;0.10;;;3.40;99.90;288.70;142287.00;;;;5047891;28;20198;-75
2023/01/31 04:22:08;;;;;;;0.10;0.10;;;3.40;99.90;288.70;142212.00;;;;5050288;28;21824;-76
2023/01/31 04:24:36;;;;;;;0.10;0.10;;;3.40;99.90;288.70;142179.00;;;;5060817;28;20223;-76
2023/01/31 04:27:05;;;;;;;0.10;0.10;;;3.40;99.90;288.70;142222.00;;;;5046801;28;20228;-76
2023/01/31 04:29:33;;;;;;;0.10;0.10;;;3.40;99.90;288.60;142200.00;;;;5051057;28;20673;-77
2023/01/31 04:32:01;;;;;;;0.10;0.10;;;3.30;99.90;288.60;142087.00;;;;5057148;28;20684;-76
2023/01/31 04:34:29;;;;;;;0.05;0.05;;;3.30;99.90;288.60;142232.00;;;;5050543;28;20302;-77
2023/01/31 04:36:57;;;;;;;0.10;0.10;;;3.40;99.90;288.60;142159.00;;;;5050214;28;20194;-76
2023/01/31 04:39:25;;;;;;;0.10;0.10;;;3.30;99.90;288.50;142325.00;;;;5045636;28;20203;-76
2023/01/31 04:41:53;;;;;;;0.10;0.10;;;3.30;99.90;288.80;142553.00;;;;5049672;28;20284;-75
2023/01/31 04:44:22;;;;;;;0.10;0.10;;;3.40;99.90;288.70;142492.00;;;;5041051;28;20230;-75
2023/01/31 04:46:50;;;;;;;0.10;0.10;;;3.40;99.90;288.60;142240.00;;;;5044412;28;20661;-76
2023/01/31 04:49:18;;;;;;;0.10;0.10;;;3.40;99.90;288.60;142266.00;;;;5043572;28;20206;-75
2023/01/31 04:51:46;;;;;;;0.10;0.10;;;3.40;99.90;288.60;142231.00;;;;5047374;28;20197;-76
2023/01/31 04:54:15;;;;;;;0.10;0.10;;;3.40;99.90;288.70;142357.00;;;;5034884;28;20293;-76
2023/01/31 04:56:43;;;;;;;0.10;0.10;;;3.40;99.90;288.70;142349.00;;;;5036910;28;20239;-76
2023/01/31 04:59:11;;;;;;;0.10;0.10;;;3.40;99.90;288.70;142361.00;;;;5033458;28;20692;-76
2023/01/31 05:01:40;;;;;;;0.10;0.10;;;3.40;99.90;288.70;142324.00;;;;5037357;28;20210;-76
2023/01/31 05:04:09;;;;;;;0.10;0.10;;;3.40;99.90;288.80;142481.00;;;;5058172;22;20252;-74
2023/01/31 05:06:37;;;;;;;0.10;0.10;;;3.50;99.90;288.70;142464.00;;;;4997455;28;20200;-74
2023/01/31 05:09:06;;;;;;;0.10;0.10;;;3.50;99.90;288.70;142377.00;;;;4996418;28;20200;-74
2023/01/31 05:11:34;;;;;;;0.10;0.10;;;3.50;99.90;288.80;142945.00;;;;4997566;28;20780;-74
2023/01/31 05:14:03;;;;;;;0.10;0.10;;;3.50;99.90;288.80;142927.00;;;;4998380;28;20694;-74
2023/01/31 05:16:31;;;;;;;0.10;0.10;;;3.50;99.90;288.80;142750.00;;;;5004299;28;20200;-75
2023/01/31 05:19:01;;;;;;;0.10;0.10;;;3.50;99.90;288.80;142673.00;;;;4998816;28;20554;-74
2023/01/31 05:21:28;;;;;;;0.10;0.10;;;3.50;99.90;288.80;142542.00;;;;4999078;28;20215;-74
2023/01/31 05:23:56;;;;;;;0.10;0.10;;;3.50;99.90;288.80;142562.00;;;;4999234;28;20228;-75
2023/01/31 05:26:24;;;;;;;0.10;0.10;;;3.50;99.90;288.70;142457.00;;;;5006058;28;20589;-73
2023/01/31 05:28:52;;;;;;;0.10;0.10;;;3.50;99.90;288.70;142553.00;;;;5003305;28;20607;-74
2023/01/31 05:31:20;;;;;;;0.10;0.10;;;3.40;99.90;288.70;142582.00;;;;5002056;28;20259;-73
2023/01/31 05:33:48;;;;;;;0.10;0.10;;;3.50;99.90;288.70;142551.00;;;;5001265;28;20259;-73
2023/01/31 05:36:17;;;;;;;0.10;0.10;;;3.40;99.90;288.80;142602.00;;;;5006980;28;20318;-73
2023/01/31 05:38:47;;;;;;;0.10;0.10;;;3.50;99.90;288.80;142599.00;;;;5006711;28;20253;-73
2023/01/31 05:41:14;;;;;;;0.10;0.10;;;3.50;99.90;288.80;142655.00;;;;5007039;28;20211;-73
2023/01/31 05:43:42;;;;;;;0.10;0.10;;;3.50;99.90;288.80;142601.00;;;;5009761;28;20196;-73
2023/01/31 05:46:10;;;;;;;0.00;0.00;;;3.50;99.90;288.70;142441.00;;;;5007324;28;20756;-74
2023/01/31 05:48:38;;;;;;;0.10;0.10;;;3.40;99.90;288.70;142378.00;;;;5006938;28;20210;-73
2023/01/31 05:51:06;;;;;;;0.10;0.10;;;3.40;99.90;288.70;142355.00;;;;5002906;28;20227;-73
2023/01/31 05:53:35;;;;;;;0.17;0.17;;;3.40;99.90;288.60;142412.00;;;;4994530;28;20201;-73
2023/01/31 05:56:04;;;;;;;0.10;0.10;;;3.40;99.90;288.60;142363.00;;;;5002873;28;20216;-73
2023/01/31 05:58:32;;;;;;;0.10;0.10;;;3.40;99.90;288.50;142325.00;;;;5002627;28;20209;-73
2023/01/31 06:01:00;;;;;;;0.10;0.10;;;3.40;99.90;288.50;142373.00;;;;5006322;28;20199;-73
2023/01/31 06:03:28;;;;;;;0.10;0.10;;;3.30;99.90;288.40;142405.00;;;;5008505;28;20299;-74
2023/01/31 06:05:55;;;;;;;0.10;0.10;;;3.30;99.90;288.60;142482.00;;;;5008154;28;20729;-74
2023/01/31 06:08:24;;;;;;;0.10;0.10;;;3.30;99.90;288.50;142422.00;;;;5014746;28;20195;-75
2023/01/31 06:10:53;;;;;;;0.10;0.10;;;3.30;99.90;288.40;142338.00;;;;5005683;28;20242;-75
2023/01/31 06:13:21;;;;;;;0.10;0.10;;;3.30;99.90;288.50;142511.00;;;;5014676;28;20195;-74
2023/01/31 06:15:49;;;;;;;0.10;0.10;;;3.30;99.90;288.50;142405.00;;;;5008317;28;20235;-74
2023/01/31 06:18:17;;;;;;;0.10;0.10;;;3.30;99.90;288.50;142437.00;;;;5016073;28;20211;-73
2023/01/31 06:20:45;;;;;;;0.10;0.10;;;3.30;99.90;288.50;142406.00;;;;5013645;28;20200;-75
2023/01/31 06:23:13;;;;;;;0.10;0.10;;;3.30;99.90;288.60;142600.00;;;;5008638;28;20714;-75
2023/01/31 06:25:41;;;;;;;0.10;0.10;;;3.30;99.90;288.60;142559.00;;;;5015984;28;20282;-75
2023/01/31 06:28:10;;;;;;;0.10;0.10;;;3.40;99.90;288.60;142523.00;;;;5023515;28;20204;-74
2023/01/31 06:30:38;;;;;;;0.10;0.10;;;3.40;99.90;288.60;142594.00;;;;5031460;28;20203;-74
2023/01/31 06:33:07;;;;;;;0.10;0.10;;;3.40;99.90;288.60;142574.00;;;;5027239;28;20227;-74
2023/01/31 06:35:35;;;;;;;0.10;0.10;;;3.40;99.90;288.70;142596.00;;;;5029869;28;20243;-75
2023/01/31 06:38:03;;;;;;;0.10;0.10;;;3.40;99.90;288.60;142591.00;;;;5027918;28;20200;-74
2023/01/31 06:40:32;;;;;;;0.10;0.10;;;3.40;99.90;288.60;142530.00;;;;5032963;28;20210;-75
2023/01/31 06:43:00;;;;;;;0.10;0.10;;;3.40;99.90;288.60;142592.00;;;;5020345;28;20247;-75
2023/01/31 06:45:29;;;;;;;0.10;0.10;;;3.40;99.90;288.60;142593.00;;;;5008688;28;20282;-75
2023/01/31 06:47:57;;;;;;;0.10;0.10;;;3.40;99.90;288.60;142575.00;;;;5006812;28;20200;-75
2023/01/31 06:50:25;;;;;;;0.10;0.10;;;3.40;99.90;288.60;142587.00;;;;5008159;28;20796;-75
2023/01/31 06:52:53;;;;;;;0.10;0.10;;;3.40;99.90;288.50;142588.00;;;;5010979;28;20199;-74
2023/01/31 06:55:21;;;;;;;0.10;0.10;;;3.30;99.90;288.40;142501.00;;;;5007212;28;20224;-74
2023/01/31 06:57:50;;;;;;;0.10;0.10;;;3.20;99.90;288.20;142250.00;;;;5012469;28;20709;-75
2023/01/31 07:00:19;;;;;;;0.10;0.10;;;3.10;99.90;288.20;142318.00;;;;5012806;28;20266;-74
2023/01/31 07:02:49;;;;;;;0.10;0.10;;;3.10;99.90;288.10;142419.00;;;;5005573;28;20208;-74
2023/01/31 07:05:18;;;;;;;0.10;0.10;;;3.10;99.90;288.10;142425.00;;;;5008149;28;20345;-74
2023/01/31 07:07:48;;;;;;;0.05;0.05;;;3.10;99.90;288.10;142359.00;;;;5001640;28;20259;-76
2023/01/31 07:10:17;;;;;;;0.10;0.10;;;3.10;99.90;288.00;142312.00;;;;5007035;28;20334;-75
2023/01/31 07:12:45;;;;;;;0.10;0.10;;;3.00;99.90;287.90;142224.00;;;;5004738;28;20208;-75
2023/01/31 07:15:13;;;;;;;0.10;0.10;;;3.00;99.90;287.90;142258.00;;;;5012293;28;20215;-75
2023/01/31 07:17:42;;;;;;;0.10;0.10;;;3.00;99.90;287.90;142277.00;;;;5009709;28;20204;-74
2023/01/31 07:20:13;;;;;;;0.10;0.10;;;3.00;99.90;287.80;142178.00;;;;5015690;28;20733;-75
2023/01/31 07:22:41;;;;;;;0.10;0.10;;;2.90;99.90;287.80;142146.00;;;;5009613;28;20216;-75
2023/01/31 07:25:10;;;;;;;0.10;0.10;;;2.90;99.90;287.80;142273.00;;;;5014218;28;20248;-74
2023/01/31 07:27:38;;;;;;;0.10;0.10;;;2.90;99.90;287.80;142360.00;;;;5000948;28;20215;-74
2023/01/31 07:30:07;;;;;;;0.10;0.10;;;2.90;99.90;287.70;142189.00;;;;5010842;28;20203;-74
2023/01/31 07:32:35;;;;;;;0.10;0.10;;;2.80;99.90;287.70;142143.00;;;;5025043;28;20253;-73
2023/01/31 07:35:04;;;;;;;0.10;0.10;;;2.90;99.90;287.70;142155.00;;;;5006596;28;20718;-72
2023/01/31 07:37:33;;;;;;;0.10;0.10;;;2.80;99.90;287.70;142182.00;;;;5009211;28;20246;-74
2023/01/31 07:40:01;;;;;;;0.13;0.13;;;2.80;99.90;287.70;142222.00;;;;5008041;28;20196;-73
2023/01/31 07:42:29;;;;;;;0.10;0.10;;;2.80;99.90;287.70;142284.00;;;;5009597;28;20566;-73
2023/01/31 07:44:57;;;;;;;0.10;0.10;;;2.80;99.90;287.70;142398.00;;;;5007782;28;20306;-73
2023/01/31 07:47:29;;;;;;;0.10;0.10;;;2.90;99.90;287.80;142440.00;;;;5011412;28;20231;-73
2023/01/31 07:49:58;;;;;;;0.10;0.10;;;2.90;99.90;287.80;142185.00;;;;5004121;28;20762;-73
2023/01/31 07:52:26;;;;;;;0.10;0.10;;;2.90;99.90;287.80;142337.00;;;;5008069;28;20204;-73
2023/01/31 07:54:55;;;;;;;0.10;0.10;;;2.90;99.90;287.80;142304.00;;;;5008698;28;20219;-73
2023/01/31 07:57:23;;;;;;;0.10;0.10;;;2.90;99.90;287.80;142383.00;;;;5016389;28;20735;-72
2023/01/31 07:59:51;;;;;;;0.10;0.10;;;2.90;99.90;287.80;142315.00;;;;5003197;28;20254;-73
2023/01/31 08:05:05;;;;;;;0.10;0.10;;;2.90;99.90;287.90;142424.00;;;;5001377;28;20231;-72
2023/01/31 08:07:33;;;;;;;0.10;0.10;;;2.90;99.90;287.90;142478.00;;;;4999420;28;20291;-72
2023/01/31 08:10:03;;;;;;;0.10;0.10;;;2.90;99.90;287.90;142446.00;;;;5002427;28;20314;-72
2023/01/31 08:12:31;;;;;;;0.10;0.10;;;2.90;99.90;288.00;142477.00;;;;5002790;28;20556;-72
2023/01/31 08:14:59;;;;;;;0.10;0.10;;;3.00;99.90;288.10;142461.00;;;;5005614;28;20216;-72
2023/01/31 08:17:27;;;;;;;0.10;0.10;;;3.00;99.90;288.10;142462.00;;;;5006392;28;20227;-74
2023/01/31 08:19:56;;;;;;;0.10;0.10;;;3.10;99.90;288.20;142568.00;;;;5012856;28;20291;-71
2023/01/31 08:22:24;;;;;;;0.10;0.10;;;3.10;99.90;288.20;142622.00;;;;4998456;28;20200;-75
2023/01/31 08:24:52;;;;;;;0.10;0.10;;;3.10;99.90;288.30;142579.00;;;;5007071;28;20579;-74
2023/01/31 08:27:21;;;;;;;0.10;0.10;;;3.20;99.90;288.30;142529.00;;;;5008415;28;20262;-74
2023/01/31 08:29:49;;;;;;;0.10;0.10;;;3.20;99.90;288.20;142532.00;;;;4995028;28;20555;-74
2023/01/31 08:32:17;;;;;;;0.10;0.10;;;3.20;99.90;288.30;142626.00;;;;4998779;28;20195;-74
2023/01/31 08:34:45;;;;;;;0.10;0.10;;;3.20;99.90;288.40;142616.00;;;;5004116;28;20298;-74
2023/01/31 08:37:13;;;;;;;0.10;0.10;;;3.20;99.90;288.50;142695.00;;;;4997812;28;20240;-74
2023/01/31 08:39:44;;;;;;;0.10;0.10;;;3.30;99.90;288.60;142769.00;;;;5012873;28;20537;-74
2023/01/31 08:42:12;;;;;;;0.10;0.10;;;3.30;99.90;288.60;142774.00;;;;5004558;28;20613;-74
2023/01/31 08:44:42;;;;;;;0.10;0.10;;;3.40;99.90;288.60;142808.00;;;;5005404;28;20223;-74
2023/01/31 08:47:10;;;;;;;0.10;0.10;;;3.40;99.90;288.70;142889.00;;;;5014138;28;20681;-74
2023/01/31 08:49:39;;;;;;;0.10;0.10;;;3.40;99.90;288.80;142895.00;;;;5002137;28;20210;-73
2023/01/31 08:52:07;;;;;;;0.10;0.10;;;3.50;99.90;288.70;142660.00;;;;5010737;28;20257;-73
2023/01/31 08:54:35;;;;;;;0.10;0.10;;;3.50;99.90;288.70;142711.00;;;;5002016;28;20215;-74
2023/01/31 08:57:03;;;;;;;0.10;0.10;;;3.40;99.90;288.70;142640.00;;;;5008425;28;20273;-73
2023/01/31 08:59:31;;;;;;;0.10;0.10;;;3.40;99.90;288.70;142601.00;;;;5008993;28;20667;-74
2023/01/31 09:02:00;;;;;;;0.10;0.10;;;3.40;99.90;288.70;142640.00;;;;5001226;28;20208;-74
2023/01/31 09:04:28;;;;;;;0.10;0.10;;;3.40;99.90;288.80;142781.00;;;;5002812;28;20243;-72
2023/01/31 09:06:57;;;;;;;0.10;0.10;;;3.50;99.90;288.80;142671.00;;;;5006116;28;20210;-73
2023/01/31 09:09:25;;;;;;;0.10;0.10;;;3.50;99.90;288.90;142889.00;;;;5003454;28;20699;-72
2023/01/31 09:11:54;;;;;;;0.10;0.10;;;3.50;99.90;288.90;142840.00;;;;5003349;28;20203;-73
2023/01/31 09:14:22;;;;;;;0.10;0.10;;;3.50;99.90;288.90;142769.00;;;;4998223;28;20278;-72
2023/01/31 09:16:51;;;;;;;0.10;0.10;;;3.50;99.90;288.80;142659.00;;;;4995764;28;20791;-74
2023/01/31 09:19:21;;;;;;;0.10;0.10;;;3.50;99.90;288.80;142563.00;;;;5004406;28;20223;-74
2023/01/31 09:21:49;;;;;;;0.10;0.10;;;3.50;99.90;288.80;142666.00;;;;5002204;28;20218;-73
2023/01/31 09:24:17;;;;;;;0.10;0.10;;;3.50;99.90;288.90;142707.00;;;;5020841;28;20234;-73
2023/01/31 09:26:45;;;;;;;0.10;0.10;;;3.50;99.90;288.90;142667.00;;;;5014476;28;20605;-73
2023/01/31 09:29:13;;;;;;;0.10;0.10;;;3.50;99.90;288.80;142654.00;;;;5002337;28;20219;-74
2023/01/31 09:31:41;;;;;;;0.10;0.10;;;3.50;99.90;288.90;142673.00;;;;5010294;28;20266;-75
2023/01/31 09:34:09;;;;;;;0.10;0.10;;;3.50;99.90;288.80;142678.00;;;;5031990;28;20255;-74
2023/01/31 09:36:39;;;;;;;0.10;0.10;;;3.50;99.90;288.90;142742.00;;;;5006738;28;20212;-74
2023/01/31 09:39:07;;;;;;;0.10;0.10;;;3.60;99.90;288.90;142674.00;;;;5013611;28;20587;-75
2023/01/31 09:41:42;;;;;;;0.08;0.08;;;3.50;99.90;288.90;142644.00;;;;5038630;28;20191;-74
2023/01/31 09:44:21;;;;;;;0.10;0.10;;;3.50;99.90;288.90;142643.00;;;;5013805;28;20568;-74
2023/01/31 09:46:57;;;;;;;0.10;0.10;;;3.50;99.90;288.90;142651.00;;;;5018286;28;20216;-74
2023/01/31 09:49:30;;;;;;;0.10;0.10;;;3.50;99.90;288.80;142597.00;;;;5012967;28;20286;-74
2023/01/31 09:52:03;;;;;;;0.10;0.10;;;3.50;99.90;288.80;142678.00;;;;5022288;28;20200;-74
2023/01/31 09:54:37;;;;;;;0.10;0.10;;;3.50;99.90;288.90;142628.00;;;;5008739;28;20226;-74
2023/01/31 09:57:23;;;;;;;0.10;0.10;;;3.50;99.90;288.80;142636.00;;;;5016693;28;20629;-74
2023/01/31 10:00:02;;;;;;;0.10;0.10;;;3.50;99.90;288.80;142606.00;;;;5006734;28;20199;-74
2023/01/31 10:02:52;;;;;;;0.10;0.10;;;3.50;99.90;288.80;142664.00;;;;5008903;28;20207;-74
2023/01/31 10:05:32;;;;;;;0.08;0.08;;;3.50;99.90;288.70;142609.00;;;;5013817;28;20223;-74
2023/01/31 10:08:14;;;;;;;0.10;0.10;;;3.50;99.90;288.70;142559.00;;;;5012463;28;20250;-74
2023/01/31 10:10:48;;;;;;;0.10;0.10;;;3.40;99.90;288.70;142513.00;;;;5011552;28;20193;-74
2023/01/31 10:13:23;;;;;;;0.10;0.10;;;3.50;99.90;288.80;142627.00;;;;5009653;28;20207;-74
2023/01/31 10:15:57;;;;;;;0.13;0.13;;;3.50;99.90;288.70;142534.00;;;;5017232;28;20223;-74
2023/01/31 10:18:31;;;;;;;0.10;0.10;;;3.40;99.90;288.70;142550.00;;;;5028714;28;20231;-74
2023/01/31 10:21:08;;;;;;;0.10;0.10;;;3.40;99.90;288.80;142605.00;;;;5029030;28;20223;-74
2023/01/31 10:23:44;;;;;;;0.10;0.10;;;3.50;99.90;288.80;142563.00;;;;5029014;28;20709;-74
2023/01/31 10:26:20;;;;;;;0.10;0.10;;;3.50;99.90;288.90;142729.00;;;;5031719;28;20303;-72
2023/01/31 10:28:55;;;;;;;0.10;0.10;;;3.50;99.90;289.10;142829.00;;;;5033831;28;20270;-73
2023/01/31 10:31:33;;;;;;;0.10;0.10;;;3.60;99.90;289.00;142756.00;;;;5021692;28;20214;-73
2023/01/31 10:34:10;;;;;;;0.10;0.10;;;3.60;99.90;289.00;142644.00;;;;5026658;28;20215;-73
2023/01/31 10:36:49;;;;;;;0.10;0.10;;;3.60;99.90;289.00;142650.00;;;;5012159;28;20549;-73
2023/01/31 10:39:26;;;;;;;0.10;0.10;;;3.60;99.90;289.00;142710.00;;;;5019180;28;20218;-73
2023/01/31 10:42:15;;;;;;;0.10;0.10;;;3.60;99.90;289.00;142667.00;;;;5011219;28;20199;-73
2023/01/31 10:44:52;;;;;;;0.10;0.10;;;3.60;99.90;289.00;142698.00;;;;5013167;28;20235;-74
2023/01/31 10:47:30;;;;;;;0.10;0.10;;;3.60;99.90;289.00;142744.00;;;;5012240;28;20203;-74
2023/01/31 10:49:58;;;;;;;0.10;0.10;;;3.60;99.90;289.00;142655.00;;;;5006766;28;20324;-73
2023/01/31 10:52:49;;;;;;;0.10;0.10;;;3.60;99.90;289.00;142646.00;;;;5011751;28;20526;-74
2023/01/31 10:55:41;;;;;;;0.10;0.10;;;3.60;99.90;289.00;142575.00;;;;5016256;28;20223;-73
2023/01/31 10:58:14;;;;;;;0.10;0.10;;;3.60;99.90;289.10;142694.00;;;;5025544;28;20258;-73
2023/01/31 11:00:46;;;;;;;0.10;0.10;;;3.60;99.90;289.10;142666.00;;;;5012165;28;20207;-73
2023/01/31 11:03:16;;;;;;;0.10;0.10;;;3.60;99.90;289.00;142623.00;;;;5012274;28;20657;-73
2023/01/31 11:05:50;;;;;;;0.10;0.10;;;3.60;99.90;289.00;142562.00;;;;5067261;22;20230;-77
2023/01/31 11:08:30;;;;;;;0.10;0.10;;;3.60;99.90;289.00;142587.00;;;;5052609;28;20276;-76
2023/01/31 11:11:07;;;;;;;0.10;0.10;;;3.60;99.90;289.10;142707.00;;;;5055280;28;20597;-78
2023/01/31 11:13:35;;;;;;;0.10;0.10;;;3.60;99.90;289.10;142684.00;;;;5041570;28;20586;-76